N1DB TJSJ-TJBQ
Flight info
| Callsign | N1DB |
|---|---|
| Flight time | 0h 26m |
| Altitude | 6000 |
| Route | SJU RTE2 BQN |
| Aircraft | DC3/M-SDF/C |
Departure
| Time | 2026-05-06 23:19 |
|---|---|
| Airport | Luis Munoz Marin International Airport (TJSJ) |
Arrival
| Time | 2026-05-06 23:45 |
|---|---|
| Airport | Rafael Hernández International Airport (TJBQ) |
| Time | Latitude | Longitude | Altitude | Speed | Heading |
|---|---|---|---|---|---|
| 2026-05-06 22:48 | 18.43548 | -65.99264 | 17 ft | 0 kts | 359° |
| 2026-05-06 23:02 | 18.43568 | -65.99264 | 17 ft | 5 kts | 359° |
| 2026-05-06 23:02 | 18.43621 | -65.99273 | 17 ft | 9 kts | 314° |
| 2026-05-06 23:02 | 18.43638 | -65.99321 | 17 ft | 7 kts | 273° |
| 2026-05-06 23:02 | 18.43627 | -65.99376 | 17 ft | 7 kts | 251° |
| 2026-05-06 23:03 | 18.43609 | -65.99427 | 16 ft | 7 kts | 243° |
| 2026-05-06 23:03 | 18.43601 | -65.99441 | 16 ft | 0 kts | 236° |
| 2026-05-06 23:04 | 18.43600 | -65.99443 | 16 ft | 0 kts | 233° |
| 2026-05-06 23:09 | 18.43593 | -65.99453 | 16 ft | 3 kts | 233° |
| 2026-05-06 23:10 | 18.43577 | -65.99475 | 16 ft | 0 kts | 234° |
| 2026-05-06 23:10 | 18.43572 | -65.99483 | 16 ft | 2 kts | 235° |
| 2026-05-06 23:10 | 18.43566 | -65.99491 | 16 ft | 0 kts | 235° |
| 2026-05-06 23:10 | 18.43564 | -65.99494 | 16 ft | 1 kts | 256° |
| 2026-05-06 23:11 | 18.43561 | -65.99541 | 16 ft | 7 kts | 268° |
| 2026-05-06 23:11 | 18.43559 | -65.99608 | 16 ft | 10 kts | 270° |
| 2026-05-06 23:11 | 18.43560 | -65.99709 | 16 ft | 15 kts | 269° |
| 2026-05-06 23:11 | 18.43559 | -65.99814 | 16 ft | 16 kts | 270° |
| 2026-05-06 23:12 | 18.43596 | -65.99913 | 16 ft | 15 kts | 313° |
| 2026-05-06 23:12 | 18.43679 | -65.99975 | 16 ft | 13 kts | 338° |
| 2026-05-06 23:12 | 18.43783 | -66.00020 | 16 ft | 18 kts | 338° |
| 2026-05-06 23:12 | 18.43911 | -66.00076 | 16 ft | 19 kts | 337° |
| 2026-05-06 23:13 | 18.44039 | -66.00134 | 16 ft | 19 kts | 336° |
| 2026-05-06 23:13 | 18.44161 | -66.00191 | 16 ft | 15 kts | 327° |
| 2026-05-06 23:13 | 18.44176 | -66.00264 | 16 ft | 11 kts | 250° |
| 2026-05-06 23:13 | 18.44140 | -66.00363 | 16 ft | 15 kts | 250° |
| 2026-05-06 23:14 | 18.44122 | -66.00444 | 16 ft | 8 kts | 274° |
| 2026-05-06 23:14 | 18.44148 | -66.00514 | 16 ft | 10 kts | 273° |
| 2026-05-06 23:14 | 18.44139 | -66.00538 | 16 ft | 6 kts | 242° |
| 2026-05-06 23:14 | 18.44110 | -66.00603 | 16 ft | 13 kts | 247° |
| 2026-05-06 23:15 | 18.44065 | -66.00718 | 16 ft | 19 kts | 245° |
| 2026-05-06 23:15 | 18.44008 | -66.00851 | 17 ft | 19 kts | 247° |
| 2026-05-06 23:15 | 18.43951 | -66.00994 | 17 ft | 22 kts | 246° |
| 2026-05-06 23:15 | 18.43892 | -66.01141 | 17 ft | 21 kts | 247° |
| 2026-05-06 23:16 | 18.43836 | -66.01284 | 17 ft | 19 kts | 249° |
| 2026-05-06 23:16 | 18.43794 | -66.01392 | 17 ft | 13 kts | 247° |
| 2026-05-06 23:16 | 18.43775 | -66.01447 | 17 ft | 10 kts | 252° |
| 2026-05-06 23:16 | 18.43764 | -66.01514 | 17 ft | 4 kts | 282° |
| 2026-05-06 23:17 | 18.43766 | -66.01522 | 17 ft | 3 kts | 292° |
| 2026-05-06 23:17 | 18.43799 | -66.01555 | 17 ft | 9 kts | 342° |
| 2026-05-06 23:17 | 18.43855 | -66.01537 | 17 ft | 2 kts | 63° |
| 2026-05-06 23:17 | 18.43892 | -66.01445 | 17 ft | 41 kts | 70° |
| 2026-05-06 23:18 | 18.44089 | -66.00972 | 18 ft | 95 kts | 68° |
| 2026-05-06 23:18 | 18.44372 | -66.00269 | 155 ft | 106 kts | 75° |
| 2026-05-06 23:18 | 18.44580 | -65.99529 | 411 ft | 112 kts | 78° |
| 2026-05-06 23:18 | 18.45085 | -65.98834 | 587 ft | 134 kts | 36° |
| 2026-05-06 23:19 | 18.46038 | -65.98646 | 799 ft | 150 kts | 354° |
| 2026-05-06 23:19 | 18.46973 | -65.99190 | 1032 ft | 159 kts | 318° |
| 2026-05-06 23:19 | 18.47757 | -65.99976 | 1384 ft | 153 kts | 318° |
| 2026-05-06 23:19 | 18.48507 | -66.00757 | 1669 ft | 153 kts | 318° |
| 2026-05-06 23:20 | 18.49265 | -66.01561 | 1911 ft | 156 kts | 318° |
| 2026-05-06 23:20 | 18.50032 | -66.02368 | 2145 ft | 154 kts | 318° |
| 2026-05-06 23:20 | 18.50781 | -66.03148 | 2371 ft | 149 kts | 317° |
| 2026-05-06 23:20 | 18.51514 | -66.03914 | 2557 ft | 147 kts | 318° |
| 2026-05-06 23:21 | 18.52238 | -66.04668 | 2744 ft | 145 kts | 317° |
| 2026-05-06 23:21 | 18.52963 | -66.05407 | 2929 ft | 144 kts | 318° |
| 2026-05-06 23:21 | 18.53374 | -66.06338 | 3097 ft | 142 kts | 271° |
| 2026-05-06 23:21 | 18.53341 | -66.07367 | 3262 ft | 141 kts | 263° |
| 2026-05-06 23:22 | 18.53255 | -66.08406 | 3404 ft | 143 kts | 263° |
| 2026-05-06 23:22 | 18.53185 | -66.09461 | 3544 ft | 145 kts | 264° |
| 2026-05-06 23:22 | 18.53130 | -66.10529 | 3683 ft | 147 kts | 265° |
| 2026-05-06 23:22 | 18.53085 | -66.11611 | 3826 ft | 149 kts | 266° |
| 2026-05-06 23:23 | 18.53044 | -66.12705 | 3971 ft | 150 kts | 266° |
| 2026-05-06 23:23 | 18.53007 | -66.13811 | 4115 ft | 152 kts | 266° |
| 2026-05-06 23:23 | 18.52971 | -66.14925 | 4259 ft | 152 kts | 267° |
| 2026-05-06 23:23 | 18.52936 | -66.16046 | 4400 ft | 154 kts | 266° |
| 2026-05-06 23:24 | 18.52901 | -66.17175 | 4546 ft | 154 kts | 267° |
| 2026-05-06 23:24 | 18.52866 | -66.18302 | 4688 ft | 154 kts | 267° |
| 2026-05-06 23:24 | 18.52832 | -66.19432 | 4831 ft | 154 kts | 267° |
| 2026-05-06 23:24 | 18.52798 | -66.20568 | 4981 ft | 155 kts | 267° |
| 2026-05-06 23:25 | 18.52763 | -66.21701 | 5116 ft | 155 kts | 267° |
| 2026-05-06 23:25 | 18.52729 | -66.22838 | 5259 ft | 155 kts | 267° |
| 2026-05-06 23:25 | 18.52694 | -66.23975 | 5404 ft | 155 kts | 267° |
| 2026-05-06 23:25 | 18.52659 | -66.25109 | 5545 ft | 155 kts | 268° |
| 2026-05-06 23:26 | 18.52625 | -66.26246 | 5710 ft | 155 kts | 268° |
| 2026-05-06 23:26 | 18.52590 | -66.27377 | 5867 ft | 154 kts | 268° |
| 2026-05-06 23:26 | 18.52555 | -66.28513 | 5976 ft | 157 kts | 268° |
| 2026-05-06 23:26 | 18.52518 | -66.29700 | 5991 ft | 166 kts | 268° |
| 2026-05-06 23:27 | 18.52481 | -66.30938 | 5990 ft | 173 kts | 268° |
| 2026-05-06 23:27 | 18.52441 | -66.32221 | 6002 ft | 178 kts | 268° |
| 2026-05-06 23:27 | 18.52401 | -66.33538 | 5994 ft | 183 kts | 268° |
| 2026-05-06 23:27 | 18.52359 | -66.34887 | 5994 ft | 186 kts | 268° |
| 2026-05-06 23:28 | 18.52317 | -66.36252 | 5991 ft | 187 kts | 268° |
| 2026-05-06 23:28 | 18.52275 | -66.37618 | 5983 ft | 186 kts | 268° |
| 2026-05-06 23:28 | 18.52233 | -66.38969 | 5987 ft | 183 kts | 268° |
| 2026-05-06 23:28 | 18.52191 | -66.40306 | 5983 ft | 182 kts | 268° |
| 2026-05-06 23:29 | 18.52150 | -66.41632 | 5984 ft | 180 kts | 268° |
| 2026-05-06 23:29 | 18.52108 | -66.42950 | 5989 ft | 180 kts | 268° |
| 2026-05-06 23:29 | 18.52067 | -66.44266 | 5989 ft | 179 kts | 268° |
| 2026-05-06 23:29 | 18.52025 | -66.45582 | 5968 ft | 180 kts | 268° |
| 2026-05-06 23:30 | 18.51984 | -66.46900 | 5960 ft | 180 kts | 268° |
| 2026-05-06 23:30 | 18.51942 | -66.48215 | 5960 ft | 179 kts | 268° |
| 2026-05-06 23:30 | 18.51901 | -66.49526 | 5960 ft | 179 kts | 268° |
| 2026-05-06 23:30 | 18.51859 | -66.50834 | 5958 ft | 179 kts | 268° |
| 2026-05-06 23:31 | 18.51818 | -66.52139 | 5960 ft | 178 kts | 268° |
| 2026-05-06 23:31 | 18.51795 | -66.53444 | 5959 ft | 178 kts | 269° |
| 2026-05-06 23:31 | 18.51782 | -66.54749 | 5958 ft | 178 kts | 270° |
| 2026-05-06 23:31 | 18.51797 | -66.56052 | 5959 ft | 178 kts | 271° |
| 2026-05-06 23:32 | 18.51828 | -66.57355 | 5961 ft | 177 kts | 272° |
| 2026-05-06 23:32 | 18.51809 | -66.58654 | 5960 ft | 177 kts | 268° |
| 2026-05-06 23:32 | 18.51767 | -66.59954 | 5955 ft | 178 kts | 268° |
| 2026-05-06 23:32 | 18.51721 | -66.61283 | 5796 ft | 185 kts | 268° |
| 2026-05-06 23:33 | 18.51673 | -66.62656 | 5641 ft | 190 kts | 268° |
| 2026-05-06 23:33 | 18.51624 | -66.64054 | 5481 ft | 193 kts | 268° |
| 2026-05-06 23:33 | 18.51572 | -66.65476 | 5326 ft | 195 kts | 267° |
| 2026-05-06 23:33 | 18.51514 | -66.66912 | 5167 ft | 197 kts | 267° |
| 2026-05-06 23:34 | 18.51457 | -66.68350 | 4996 ft | 197 kts | 267° |
| 2026-05-06 23:34 | 18.51401 | -66.69791 | 4829 ft | 197 kts | 266° |
| 2026-05-06 23:34 | 18.51345 | -66.71236 | 4660 ft | 197 kts | 267° |
| 2026-05-06 23:34 | 18.51291 | -66.72677 | 4494 ft | 197 kts | 267° |
| 2026-05-06 23:35 | 18.51236 | -66.74121 | 4324 ft | 197 kts | 266° |
| 2026-05-06 23:35 | 18.51183 | -66.75565 | 4159 ft | 197 kts | 266° |
| 2026-05-06 23:35 | 18.51129 | -66.77012 | 3996 ft | 197 kts | 266° |
| 2026-05-06 23:35 | 18.51076 | -66.78455 | 3826 ft | 197 kts | 267° |
| 2026-05-06 23:36 | 18.51022 | -66.79895 | 3659 ft | 197 kts | 266° |
| 2026-05-06 23:36 | 18.50969 | -66.81338 | 3493 ft | 197 kts | 267° |
| 2026-05-06 23:36 | 18.50917 | -66.82781 | 3321 ft | 197 kts | 266° |
| 2026-05-06 23:36 | 18.50863 | -66.84222 | 3154 ft | 197 kts | 266° |
| 2026-05-06 23:37 | 18.50813 | -66.85663 | 2992 ft | 196 kts | 268° |
| 2026-05-06 23:37 | 18.50934 | -66.87076 | 2896 ft | 193 kts | 277° |
| 2026-05-06 23:37 | 18.51111 | -66.88472 | 2768 ft | 191 kts | 277° |
| 2026-05-06 23:37 | 18.51294 | -66.89846 | 2639 ft | 189 kts | 277° |
| 2026-05-06 23:38 | 18.51471 | -66.91213 | 2514 ft | 187 kts | 277° |
| 2026-05-06 23:38 | 18.51643 | -66.92567 | 2390 ft | 186 kts | 277° |
| 2026-05-06 23:38 | 18.51812 | -66.93916 | 2262 ft | 185 kts | 277° |
| 2026-05-06 23:38 | 18.51977 | -66.95258 | 2139 ft | 185 kts | 277° |
| 2026-05-06 23:39 | 18.52140 | -66.96603 | 2017 ft | 185 kts | 276° |
| 2026-05-06 23:39 | 18.52081 | -66.97928 | 1967 ft | 178 kts | 254° |
| 2026-05-06 23:39 | 18.51552 | -66.99082 | 1891 ft | 175 kts | 236° |
| 2026-05-06 23:39 | 18.50982 | -67.00201 | 1860 ft | 171 kts | 241° |
| 2026-05-06 23:40 | 18.50444 | -67.01313 | 1807 ft | 171 kts | 242° |
| 2026-05-06 23:40 | 18.49981 | -67.02459 | 1829 ft | 165 kts | 252° |
| 2026-05-06 23:40 | 18.49725 | -67.03635 | 1887 ft | 163 kts | 255° |
| 2026-05-06 23:40 | 18.49445 | -67.04769 | 1996 ft | 158 kts | 255° |
| 2026-05-06 23:41 | 18.49233 | -67.05918 | 1928 ft | 162 kts | 260° |
| 2026-05-06 23:41 | 18.49102 | -67.07130 | 1756 ft | 169 kts | 265° |
| 2026-05-06 23:41 | 18.49014 | -67.08360 | 1664 ft | 168 kts | 265° |
| 2026-05-06 23:41 | 18.48863 | -67.09552 | 1710 ft | 158 kts | 257° |
| 2026-05-06 23:42 | 18.48554 | -67.10643 | 1616 ft | 152 kts | 249° |
| 2026-05-06 23:42 | 18.48263 | -67.11669 | 1458 ft | 140 kts | 256° |
| 2026-05-06 23:42 | 18.48054 | -67.12633 | 1386 ft | 127 kts | 259° |
| 2026-05-06 23:42 | 18.47876 | -67.13509 | 1327 ft | 121 kts | 252° |
| 2026-05-06 23:43 | 18.47616 | -67.14358 | 1240 ft | 120 kts | 251° |
| 2026-05-06 23:43 | 18.47353 | -67.15169 | 1206 ft | 113 kts | 248° |
| 2026-05-06 23:43 | 18.47080 | -67.15931 | 1086 ft | 108 kts | 244° |
| 2026-05-06 23:43 | 18.47100 | -67.16706 | 864 ft | 113 kts | 314° |
| 2026-05-06 23:44 | 18.47710 | -67.16791 | 821 ft | 87 kts | 43° |
| 2026-05-06 23:44 | 18.48170 | -67.16366 | 706 ft | 86 kts | 47° |
| 2026-05-06 23:44 | 18.48562 | -67.15892 | 612 ft | 85 kts | 66° |
| 2026-05-06 23:44 | 18.48767 | -67.15340 | 471 ft | 74 kts | 71° |
| 2026-05-06 23:45 | 18.48910 | -67.14862 | 392 ft | 65 kts | 75° |
| 2026-05-06 23:45 | 18.49048 | -67.14400 | 278 ft | 65 kts | 75° |
| 2026-05-06 23:45 | 18.49172 | -67.13978 | 237 ft | 54 kts | 73° |
| 2026-05-06 23:45 | 18.49263 | -67.13700 | 233 ft | 30 kts | 71° |
| 2026-05-06 23:46 | 18.49332 | -67.13513 | 231 ft | 21 kts | 40° |
| 2026-05-06 23:46 | 18.49417 | -67.13513 | 231 ft | 11 kts | 320° |
| 2026-05-06 23:46 | 18.49435 | -67.13587 | 231 ft | 13 kts | 288° |
| 2026-05-06 23:46 | 18.49466 | -67.13681 | 232 ft | 13 kts | 283° |
| 2026-05-06 23:47 | 18.49460 | -67.13737 | 232 ft | 7 kts | 255° |
| 2026-05-06 23:47 | 18.49437 | -67.13818 | 233 ft | 12 kts | 251° |
| 2026-05-06 23:47 | 18.49434 | -67.13826 | 233 ft | 0 kts | 252° |